Time;durP1;ratioP1;P1;durP2;ratioP2;P2;SDS_P1;SDS_P2;PMS_P1;PMS_P2;Temp;Humidity;BMP_temperature;BMP_pressure;BME280_temperature;BME280_humidity;BME280_pressure;Samples;Min_cycle;Max_cycle;Signal;HPM_P1;HPM_P2
2023/04/19 00:00:07;;;;;;;37.47;14.57;;;;;;;11.21;69.85;100634.03;5012641;28;20049;-85
2023/04/19 00:02:34;;;;;;;37.53;14.60;;;;;;;11.24;70.01;100637.28;5018346;28;20440;-85
2023/04/19 00:05:02;;;;;;;32.13;14.15;;;;;;;11.10;70.22;100626.06;5009506;28;20532;-86
2023/04/19 00:07:29;;;;;;;26.25;13.52;;;;;;;11.15;69.91;100626.56;4996161;28;20057;-85
2023/04/19 00:09:56;;;;;;;36.30;14.18;;;;;;;11.15;69.98;100624.72;5010104;28;20052;-85
2023/04/19 00:12:23;;;;;;;35.38;13.70;;;;;;;11.03;70.28;100618.56;5004644;28;20049;-86
2023/04/19 00:14:49;;;;;;;34.17;13.45;;;;;;;11.10;70.21;100623.41;5006100;28;20076;-85
2023/04/19 00:17:16;;;;;;;33.80;12.70;;;;;;;11.11;70.33;100617.13;4996539;28;20115;-86
2023/04/19 00:19:43;;;;;;;36.70;13.63;;;;;;;11.18;70.05;100623.66;4984362;28;20053;-85
2023/04/19 00:22:10;;;;;;;37.00;14.30;;;;;;;11.14;69.86;100620.38;5014885;28;20085;-86
2023/04/19 00:24:37;;;;;;;36.50;13.80;;;;;;;11.15;70.20;100626.56;5014605;28;20053;-86
2023/04/19 00:27:04;;;;;;;33.45;13.65;;;;;;;11.08;70.40;100616.38;5007361;28;20485;-85
2023/04/19 00:29:31;;;;;;;33.65;13.77;;;;;;;11.00;70.32;100613.47;5013907;28;20047;-85
2023/04/19 00:32:00;;;;;;;35.95;14.40;;;;;;;10.92;70.93;100621.22;5002960;28;20663;-85
2023/04/19 00:34:29;;;;;;;29.25;12.52;;;;;;;11.00;70.89;100609.97;5000193;28;20524;-86
2023/04/19 00:36:56;;;;;;;31.05;13.07;;;;;;;11.00;70.67;100609.97;4999961;28;20053;-85
2023/04/19 00:39:22;;;;;;;31.63;12.80;;;;;;;10.92;70.63;100607.94;4999733;28;20045;-85
2023/04/19 00:41:49;;;;;;;31.10;13.73;;;;;;;10.95;70.49;100604.19;4989741;28;20125;-85
2023/04/19 00:44:17;;;;;;;29.08;12.63;;;;;;;10.97;70.84;100616.38;5008538;28;20069;-85
2023/04/19 00:46:44;;;;;;;34.33;13.13;;;;;;;10.91;70.77;100606.22;4998251;28;20041;-85
2023/04/19 00:49:11;;;;;;;34.20;15.30;;;;;;;10.92;70.57;100604.44;4995905;28;20053;-86
2023/04/19 00:51:38;;;;;;;35.08;14.75;;;;;;;10.82;70.91;100602.47;4998001;28;20048;-85
2023/04/19 00:54:06;;;;;;;36.55;13.02;;;;;;;10.78;71.28;100605.47;5003441;28;20045;-86
2023/04/19 00:56:33;;;;;;;30.52;12.52;;;;;;;10.81;70.84;100598.13;4998635;28;20075;-85
2023/04/19 00:59:00;;;;;;;29.65;13.02;;;;;;;10.77;71.33;100603.78;4996863;28;20054;-86
2023/04/19 01:01:27;;;;;;;26.95;11.93;;;;;;;10.85;70.83;100594.25;5011663;28;20061;-85
2023/04/19 01:03:55;;;;;;;33.13;12.48;;;;;;;10.80;71.11;100599.06;5005255;28;20657;-85
2023/04/19 01:06:21;;;;;;;29.38;12.68;;;;;;;10.62;71.55;100601.34;5005151;28;20053;-85
2023/04/19 01:08:48;;;;;;;29.02;11.70;;;;;;;10.73;71.31;100589.88;4976433;28;20844;-85
2023/04/19 01:11:15;;;;;;;28.83;11.80;;;;;;;10.53;72.06;100585.25;5010237;28;20056;-85
2023/04/19 01:13:43;;;;;;;34.90;13.80;;;;;;;10.60;72.47;100584.66;5006190;28;20050;-85
2023/04/19 01:16:10;;;;;;;27.17;11.68;;;;;;;10.61;71.94;100580.22;4998844;28;20049;-85
2023/04/19 01:18:39;;;;;;;30.58;12.63;;;;;;;10.70;71.91;100578.66;5008189;28;20892;-85
2023/04/19 01:21:07;;;;;;;27.50;11.02;;;;;;;10.75;71.77;100574.69;5014968;28;20042;-86
2023/04/19 01:23:35;;;;;;;29.00;11.90;;;;;;;10.79;71.45;100578.81;4992059;28;20318;-85
2023/04/19 01:26:02;;;;;;;33.95;12.10;;;;;;;10.64;71.66;100572.03;4994801;28;20589;-85
2023/04/19 01:28:29;;;;;;;30.10;12.27;;;;;;;10.80;71.01;100569.84;4999099;28;20042;-85
2023/04/19 01:30:55;;;;;;;26.77;11.90;;;;;;;10.72;71.52;100563.47;5010037;28;20056;-86
2023/04/19 01:33:25;;;;;;;27.63;11.18;;;;;;;10.77;71.25;100563.94;5005587;28;20037;-85
2023/04/19 01:35:52;;;;;;;23.20;11.52;;;;;;;10.75;71.39;100563.22;5007079;28;20727;-86
2023/04/19 01:38:19;;;;;;;32.38;11.85;;;;;;;10.79;71.09;100551.41;4980512;28;20116;-85
2023/04/19 01:40:46;;;;;;;28.58;11.30;;;;;;;10.80;71.09;100547.75;5011618;28;20680;-85
2023/04/19 01:43:15;;;;;;;27.60;11.60;;;;;;;10.79;71.28;100546.91;4999697;28;20336;-85
2023/04/19 01:45:42;;;;;;;30.15;11.60;;;;;;;10.84;71.04;100543.91;4991573;28;20049;-86
2023/04/19 01:48:10;;;;;;;23.23;10.10;;;;;;;10.85;70.91;100541.13;5007515;28;20076;-85
2023/04/19 01:50:37;;;;;;;24.25;10.07;;;;;;;10.88;70.96;100540.03;5010041;28;20045;-85
2023/04/19 01:53:04;;;;;;;24.38;10.70;;;;;;;10.79;70.87;100549.56;5005461;28;20060;-85
2023/04/19 01:55:31;;;;;;;26.83;10.48;;;;;;;10.86;70.97;100548.13;5002929;28;20042;-85
2023/04/19 01:57:58;;;;;;;26.40;12.35;;;;;;;10.87;70.46;100541.00;5012362;28;20477;-86
2023/04/19 02:00:25;;;;;;;24.92;10.27;;;;;;;10.88;70.37;100542.69;4993308;28;20122;-85
2023/04/19 02:02:51;;;;;;;23.00;10.48;;;;;;;10.87;70.78;100538.34;4976713;28;20132;-85
2023/04/19 02:05:19;;;;;;;30.83;11.82;;;;;;;10.88;70.31;100539.19;4998638;28;20422;-86
2023/04/19 02:07:46;;;;;;;24.55;10.75;;;;;;;10.81;70.56;100542.34;5019161;28;20041;-85
2023/04/19 02:10:12;;;;;;;24.02;10.57;;;;;;;10.79;70.53;100540.78;5005929;28;20996;-85
2023/04/19 02:12:41;;;;;;;26.17;10.50;;;;;;;10.81;70.47;100538.81;4998457;28;20532;-85
2023/04/19 02:15:09;;;;;;;25.15;10.68;;;;;;;10.78;70.63;100534.59;4983305;28;20513;-85
2023/04/19 02:17:37;;;;;;;26.13;10.98;;;;;;;10.82;70.51;100522.75;4979021;28;20048;-86
2023/04/19 02:20:07;;;;;;;26.35;10.35;;;;;;;10.84;70.94;100528.81;5009693;28;20137;-85
2023/04/19 02:22:33;;;;;;;21.75;10.18;;;;;;;10.84;70.76;100526.16;5007944;28;20053;-85
2023/04/19 02:25:01;;;;;;;19.48;8.15;;;;;;;10.82;71.14;100521.94;5012235;28;20041;-86
2023/04/19 02:27:31;;;;;;;22.10;11.02;;;;;;;10.84;70.95;100525.31;4988885;28;20513;-85
2023/04/19 02:29:58;;;;;;;21.00;9.95;;;;;;;10.82;71.10;100527.25;4963933;28;20084;-85
2023/04/19 02:32:25;;;;;;;23.25;10.60;;;;;;;10.78;70.94;100529.28;4992494;28;20364;-85
2023/04/19 02:34:52;;;;;;;29.83;9.75;;;;;;;10.78;70.80;100528.44;5014241;28;20053;-85
2023/04/19 02:37:19;;;;;;;20.52;9.30;;;;;;;10.81;71.29;100528.19;5015038;28;20037;-85
2023/04/19 02:39:46;;;;;;;23.38;8.70;;;;;;;10.79;70.77;100540.78;4992625;28;20057;-86
2023/04/19 02:42:13;;;;;;;24.33;10.15;;;;;;;10.75;70.91;100526.88;4969147;28;20045;-85
2023/04/19 02:44:39;;;;;;;25.27;9.52;;;;;;;10.78;70.69;100523.97;5008492;28;20056;-85
2023/04/19 02:47:06;;;;;;;20.85;8.77;;;;;;;10.73;70.95;100528.78;4991594;28;20816;-86
2023/04/19 02:49:35;;;;;;;23.60;10.13;;;;;;;10.69;70.81;100531.81;4988604;28;20073;-86
2023/04/19 02:52:03;;;;;;;22.50;10.30;;;;;;;10.74;70.74;100524.34;5006007;28;20081;-85
2023/04/19 02:54:32;;;;;;;22.00;9.93;;;;;;;10.69;70.92;100529.16;5012805;28;20573;-85
2023/04/19 02:56:59;;;;;;;27.73;9.98;;;;;;;10.70;70.93;100522.88;4999586;28;20053;-86
2023/04/19 02:59:26;;;;;;;20.23;8.85;;;;;;;10.69;70.70;100526.50;5014730;28;20549;-85
2023/04/19 03:01:55;;;;;;;19.35;9.38;;;;;;;10.67;70.79;100521.31;4996685;28;20057;-85
2023/04/19 03:04:23;;;;;;;26.15;9.52;;;;;;;10.62;70.79;100528.78;5012729;28;20052;-85
2023/04/19 03:06:51;;;;;;;22.13;10.02;;;;;;;10.66;70.55;100519.63;5013524;28;20095;-85
2023/04/19 03:09:18;;;;;;;20.27;9.13;;;;;;;10.61;70.21;100514.69;5006198;28;20479;-85
2023/04/19 03:11:45;;;;;;;26.25;10.45;;;;;;;10.61;70.56;100517.31;4995041;28;20045;-86
2023/04/19 03:14:12;;;;;;;25.40;10.23;;;;;;;10.62;70.48;100518.16;4990603;28;20497;-85
2023/04/19 03:16:39;;;;;;;20.73;10.10;;;;;;;10.61;70.74;100512.03;4997367;28;20140;-85
2023/04/19 03:19:07;;;;;;;18.33;8.63;;;;;;;10.59;70.85;100515.75;5006782;28;20074;-84
2023/04/19 03:21:40;;;;;;;20.92;9.20;;;;;;;10.56;70.97;100513.34;4983414;28;20143;-84
2023/04/19 03:24:07;;;;;;;21.42;9.45;;;;;;;10.59;71.28;100515.75;4981878;28;20054;-85
2023/04/19 03:26:37;;;;;;;22.92;10.32;;;;;;;10.61;71.01;100511.19;5003264;28;20057;-85
2023/04/19 03:29:04;;;;;;;19.90;10.27;;;;;;;10.70;70.36;100517.56;4992219;28;20428;-84
2023/04/19 03:31:38;;;;;;;27.20;11.23;;;;;;;10.69;70.36;100507.91;5016960;28;20076;-83
2023/04/19 03:34:06;;;;;;;18.95;9.88;;;;;;;10.62;70.82;100503.06;5017931;28;20461;-84
2023/04/19 03:36:39;;;;;;;22.33;10.38;;;;;;;10.53;71.10;100503.81;5017488;28;20246;-85
2023/04/19 03:39:06;;;;;;;25.65;9.90;;;;;;;10.45;71.51;100500.03;4969261;28;20588;-84
2023/04/19 03:41:35;;;;;;;19.13;8.65;;;;;;;10.37;71.98;100497.97;4995710;28;20050;-84
2023/04/19 03:44:11;;;;;;;22.38;9.88;;;;;;;10.29;72.12;100495.91;5000189;28;20406;-85
2023/04/19 03:46:42;;;;;;;20.50;8.77;;;;;;;10.27;72.18;100497.78;4995826;28;20119;-84
2023/04/19 03:49:09;;;;;;;21.52;9.02;;;;;;;10.26;72.18;100492.63;4989460;28;20053;-84
2023/04/19 03:51:37;;;;;;;22.63;8.73;;;;;;;10.17;72.50;100494.16;4981832;28;20104;-84
2023/04/19 03:54:06;;;;;;;19.73;9.48;;;;;;;10.10;72.58;100483.19;5009568;28;20080;-84
2023/04/19 03:56:33;;;;;;;21.50;9.07;;;;;;;10.09;72.62;100489.44;4991864;28;20052;-84
2023/04/19 03:58:59;;;;;;;18.88;9.48;;;;;;;9.98;72.81;100484.94;4998577;28;20046;-84
2023/04/19 04:01:28;;;;;;;24.17;9.60;;;;;;;9.99;73.00;100491.09;5002756;28;20416;-84
2023/04/19 04:03:55;;;;;;;20.30;8.35;;;;;;;9.99;73.19;100485.78;4992746;28;20076;-84
2023/04/19 04:06:23;;;;;;;24.25;9.13;;;;;;;9.93;73.29;100480.94;5014719;28;20517;-84
2023/04/19 04:08:49;;;;;;;21.17;9.00;;;;;;;9.91;73.34;100491.66;5008210;28;20057;-86
2023/04/19 04:11:16;;;;;;;20.80;8.98;;;;;;;9.93;73.27;100488.91;4966430;28;20415;-84
2023/04/19 04:13:48;;;;;;;23.13;9.13;;;;;;;9.93;73.20;100484.44;4996125;28;21364;-85
2023/04/19 04:16:22;;;;;;;23.05;9.30;;;;;;;9.86;73.37;100487.69;4988653;28;20408;-85
2023/04/19 04:18:52;;;;;;;19.05;9.20;;;;;;;10.00;73.36;100495.44;4999888;28;20127;-85
2023/04/19 04:21:21;;;;;;;23.98;10.57;;;;;;;10.09;73.07;100499.22;4984748;28;20048;-85
2023/04/19 04:23:48;;;;;;;26.55;10.68;;;;;;;10.21;72.50;100496.47;5000528;28;20061;-84
2023/04/19 04:26:34;;;;;;;26.05;10.70;;;;;;;10.17;72.56;100488.84;4990152;28;20053;-85
2023/04/19 04:29:33;;;;;;;26.48;11.60;;;;;;;10.20;72.80;100492.13;4990272;28;20055;-85
2023/04/19 04:32:04;;;;;;;25.42;11.27;;;;;;;10.23;72.07;100493.72;5016444;28;20513;-86
2023/04/19 04:34:38;;;;;;;26.25;10.73;;;;;;;10.18;72.43;100488.75;5011579;28;20053;-85
2023/04/19 04:37:12;;;;;;;26.50;11.23;;;;;;;10.27;72.20;100494.31;4962420;28;20054;-86
2023/04/19 04:39:40;;;;;;;20.48;9.60;;;;;;;10.24;72.44;100497.19;5014805;28;20089;-85
2023/04/19 04:42:09;;;;;;;24.13;9.90;;;;;;;10.16;72.86;100497.78;4986502;28;20072;-85
2023/04/19 04:44:36;;;;;;;21.02;9.55;;;;;;;10.11;73.12;100497.28;4993793;28;20136;-85
2023/04/19 04:47:03;;;;;;;20.08;8.90;;;;;;;10.13;73.14;100504.16;4989116;28;20177;-85
2023/04/19 04:49:35;;;;;;;25.10;10.82;;;;;;;10.19;72.79;100500.19;5008461;28;20107;-85
2023/04/19 04:52:02;;;;;;;25.98;10.68;;;;;;;10.27;72.36;100492.50;5013111;28;20570;-85
2023/04/19 04:54:34;;;;;;;24.73;10.98;;;;;;;10.28;72.23;100498.66;5010102;28;20532;-84
2023/04/19 04:57:01;;;;;;;25.75;10.57;;;;;;;10.26;72.38;100492.63;4998458;28;20736;-85
2023/04/19 04:59:29;;;;;;;26.98;10.73;;;;;;;10.20;72.66;100504.53;4979359;28;20557;-85
2023/04/19 05:02:00;;;;;;;27.30;11.40;;;;;;;10.22;72.56;100500.78;4987887;28;20658;-85
2023/04/19 05:04:26;;;;;;;26.33;10.95;;;;;;;10.30;72.28;100508.19;5001113;28;20053;-86
2023/04/19 05:06:53;;;;;;;25.02;10.60;;;;;;;10.26;72.58;100492.63;5006299;28;20079;-85
2023/04/19 05:09:24;;;;;;;26.70;11.07;;;;;;;10.28;72.39;100493.34;4982812;28;20080;-85
2023/04/19 05:11:51;;;;;;;25.83;10.77;;;;;;;10.28;72.67;100496.88;4995139;28;20049;-85
2023/04/19 05:14:18;;;;;;;24.88;11.63;;;;;;;10.33;72.88;100501.81;5009406;28;20402;-85
2023/04/19 05:16:45;;;;;;;27.23;11.40;;;;;;;10.34;72.51;100492.91;4992938;28;20045;-85
2023/04/19 05:19:12;;;;;;;26.13;11.25;;;;;;;10.33;72.85;100497.38;5007400;28;20048;-85
2023/04/19 05:21:45;;;;;;;27.23;10.70;;;;;;;10.35;73.00;100492.75;5006310;28;20064;-85
2023/04/19 05:24:12;;;;;;;25.40;10.65;;;;;;;10.46;72.61;100491.97;5002928;28;20056;-85
2023/04/19 05:26:40;;;;;;;29.05;11.55;;;;;;;10.42;72.35;100491.34;4996810;28;20062;-85
2023/04/19 05:29:08;;;;;;;28.50;11.32;;;;;;;10.50;72.52;100489.91;5011211;28;20064;-84
2023/04/19 05:31:56;;;;;;;24.63;11.05;;;;;;;10.54;72.23;100494.88;5005343;28;20045;-85
2023/04/19 05:34:28;;;;;;;24.95;11.45;;;;;;;10.62;72.51;100492.44;4999991;28;20049;-85
2023/04/19 05:36:56;;;;;;;27.77;11.13;;;;;;;10.72;72.36;100497.88;5000784;28;20149;-85
2023/04/19 05:39:22;;;;;;;27.08;12.05;;;;;;;10.76;71.49;100491.38;4972728;28;20053;-84
2023/04/19 05:41:50;;;;;;;29.88;11.88;;;;;;;10.78;71.50;100493.91;5012944;28;20045;-85
2023/04/19 05:44:17;;;;;;;30.38;11.38;;;;;;;10.78;71.90;100492.09;5014867;28;20137;-85
2023/04/19 05:46:44;;;;;;;25.75;11.20;;;;;;;10.84;71.72;100493.44;5005933;28;20537;-85
2023/04/19 05:49:13;;;;;;;27.75;11.40;;;;;;;10.86;72.04;100488.81;5019969;28;20102;-84
2023/04/19 05:52:00;;;;;;;31.05;12.82;;;;;;;10.82;72.13;100492.69;4995637;28;20042;-85
2023/04/19 05:54:35;;;;;;;24.33;12.00;;;;;;;10.91;71.72;100493.78;5009701;28;20138;-85
2023/04/19 05:57:03;;;;;;;26.13;11.05;;;;;;;10.91;72.12;100489.31;5014947;28;20427;-85
2023/04/19 05:59:30;;;;;;;26.60;12.02;;;;;;;10.96;72.25;100495.09;4997559;28;20063;-85
2023/04/19 06:01:58;;;;;;;32.85;12.18;;;;;;;11.01;72.31;100487.59;5010668;28;20049;-84
2023/04/19 06:04:26;;;;;;;30.00;11.70;;;;;;;11.03;72.37;100490.16;5012714;28;20045;-85
2023/04/19 06:06:53;;;;;;;32.33;14.25;;;;;;;10.96;72.61;100483.63;4980661;28;20527;-85
2023/04/19 06:09:20;;;;;;;36.42;14.52;;;;;;;11.10;72.27;100490.50;5000665;28;20049;-84
2023/04/19 06:11:47;;;;;;;36.10;13.95;;;;;;;11.05;72.54;100496.19;4999614;28;20056;-85
2023/04/19 06:14:17;;;;;;;32.13;13.95;;;;;;;11.02;72.46;100486.66;5012470;28;20057;-84
2023/04/19 06:16:45;;;;;;;37.22;14.98;;;;;;;11.14;72.63;100497.25;5010736;28;20387;-85
2023/04/19 06:19:12;;;;;;;37.33;14.38;;;;;;;11.23;72.94;100478.75;4998435;28;20134;-85
2023/04/19 06:21:39;;;;;;;33.85;13.23;;;;;;;11.25;72.57;100486.63;5007699;28;20058;-84
2023/04/19 06:24:08;;;;;;;34.70;12.88;;;;;;;11.34;72.41;100482.34;5012484;28;20506;-85
2023/04/19 06:26:35;;;;;;;41.50;14.00;;;;;;;11.38;71.98;100482.00;5011528;28;20057;-84
2023/04/19 06:29:05;;;;;;;36.00;15.38;;;;;;;11.41;72.35;100480.91;4993496;28;20048;-85
2023/04/19 06:31:32;;;;;;;35.88;13.98;;;;;;;11.37;72.23;100482.97;5011060;28;20048;-85
2023/04/19 06:33:59;;;;;;;38.78;15.20;;;;;;;11.40;72.64;100481.88;5013869;28;20049;-84
2023/04/19 06:36:26;;;;;;;41.75;15.50;;;;;;;11.37;72.58;100484.75;5020638;28;20072;-85
2023/04/19 06:38:53;;;;;;;40.72;15.88;;;;;;;11.29;73.35;100480.06;5014323;28;20038;-86
2023/04/19 06:41:19;;;;;;;40.15;15.35;;;;;;;11.34;73.57;100480.53;5007505;28;20286;-85
2023/04/19 06:43:46;;;;;;;37.70;16.17;;;;;;;11.40;73.29;100480.06;5014267;28;20050;-85
2023/04/19 06:46:13;;;;;;;34.42;14.50;;;;;;;11.44;73.36;100476.16;5008384;28;20043;-85
2023/04/19 06:48:40;;;;;;;35.38;15.00;;;;;;;11.49;73.42;100468.63;5015360;28;20041;-84
2023/04/19 06:51:07;;;;;;;30.50;13.40;;;;;;;11.57;73.70;100470.66;5015422;28;20050;-85
2023/04/19 06:53:34;;;;;;;43.17;16.00;;;;;;;11.58;73.17;100468.88;4999959;28;20772;-85
2023/04/19 06:56:05;;;;;;;42.08;14.30;;;;;;;11.62;72.75;100475.63;5009171;28;20138;-84
2023/04/19 06:58:32;;;;;;;49.33;17.77;;;;;;;11.66;72.58;100477.91;4985023;28;20678;-85
2023/04/19 07:01:04;;;;;;;42.00;16.05;;;;;;;11.59;72.77;100479.38;5012393;28;20064;-85
2023/04/19 07:03:31;;;;;;;40.53;15.40;;;;;;;11.60;73.58;100480.22;5006858;28;20053;-86
2023/04/19 07:05:58;;;;;;;39.47;15.95;;;;;;;11.52;74.45;100484.38;4993523;28;20057;-85
2023/04/19 07:08:25;;;;;;;38.13;14.30;;;;;;;11.54;73.97;100480.72;5004581;28;20705;-86
2023/04/19 07:11:00;;;;;;;42.53;16.30;;;;;;;11.57;73.02;100488.44;5011330;28;20042;-84
2023/04/19 07:13:27;;;;;;;39.67;14.18;;;;;;;11.53;73.59;100485.22;5016687;28;20464;-85
2023/04/19 07:15:54;;;;;;;40.33;14.00;;;;;;;11.48;74.06;100485.59;5010066;28;20053;-85
2023/04/19 07:18:21;;;;;;;35.17;14.25;;;;;;;11.46;74.17;100482.19;5010629;28;20057;-85
2023/04/19 07:20:48;;;;;;;34.10;13.07;;;;;;;11.44;74.52;100478.81;5003860;28;20042;-85
2023/04/19 07:23:15;;;;;;;35.83;15.93;;;;;;;11.48;74.17;100469.63;5020241;28;20052;-84
2023/04/19 07:25:42;;;;;;;36.22;15.48;;;;;;;11.39;74.93;100481.00;4997650;28;20044;-84
2023/04/19 07:28:08;;;;;;;41.03;15.13;;;;;;;11.43;74.71;100473.63;5010966;28;20491;-85
2023/04/19 07:30:37;;;;;;;38.55;14.77;;;;;;;11.38;74.83;100468.69;4997219;28;20526;-84
2023/04/19 07:33:07;;;;;;;35.45;14.77;;;;;;;11.38;75.20;100467.84;5011459;28;20047;-85
2023/04/19 07:35:34;;;;;;;38.63;14.55;;;;;;;11.38;75.47;100463.38;5007573;28;20045;-84
2023/04/19 07:38:01;;;;;;;35.03;14.68;;;;;;;11.39;75.16;100470.38;5015126;28;20111;-84
2023/04/19 07:40:28;;;;;;;40.45;14.52;;;;;;;11.42;74.90;100459.50;5014507;28;20048;-85
2023/04/19 07:42:55;;;;;;;36.47;14.23;;;;;;;11.49;75.12;100454.50;5012439;28;20494;-85
2023/04/19 07:45:22;;;;;;;39.08;14.98;;;;;;;11.43;74.92;100453.22;5004890;28;20056;-86
2023/04/19 07:47:49;;;;;;;35.15;14.23;;;;;;;11.48;74.75;100448.34;5016629;28;20057;-84
2023/04/19 07:50:16;;;;;;;35.15;13.20;;;;;;;11.49;75.15;100444.72;5012852;28;20045;-85
2023/04/19 07:52:43;;;;;;;37.97;14.65;;;;;;;11.50;75.48;100450.91;5012161;28;20121;-85
2023/04/19 07:55:10;;;;;;;37.15;15.23;;;;;;;11.52;75.03;100448.94;5007656;28;20061;-85
2023/04/19 07:57:36;;;;;;;37.97;14.30;;;;;;;11.54;75.03;100446.16;4995161;28;20080;-84
2023/04/19 08:00:04;;;;;;;33.90;13.38;;;;;;;11.58;74.80;100443.13;5014238;28;20060;-84
2023/04/19 08:02:44;;;;;;;34.95;14.43;;;;;;;11.63;75.14;100454.22;5012590;28;20103;-85
2023/04/19 08:05:14;;;;;;;36.95;14.85;;;;;;;11.63;75.30;100448.91;4992817;28;20097;-84
2023/04/19 08:07:41;;;;;;;38.60;16.10;;;;;;;11.71;74.62;100441.13;5012531;28;20046;-85
2023/04/19 08:10:08;;;;;;;42.47;15.30;;;;;;;11.67;74.86;100437.00;5003987;28;20595;-85
2023/04/19 08:12:35;;;;;;;38.90;16.40;;;;;;;11.72;74.66;100433.97;5012478;28;20058;-85
2023/04/19 08:15:13;;;;;;;38.25;14.15;;;;;;;11.78;74.59;100424.63;5009687;28;20046;-85
2023/04/19 08:18:00;;;;;;;36.30;13.88;;;;;;;11.84;74.52;100416.16;5010632;28;20128;-85
2023/04/19 08:20:27;;;;;;;34.78;13.13;;;;;;;11.90;75.03;100423.63;4994922;28;20344;-85
2023/04/19 08:22:54;;;;;;;37.00;14.98;;;;;;;11.93;74.61;100415.38;5002103;28;20052;-85
2023/04/19 08:25:25;;;;;;;38.03;15.65;;;;;;;11.96;74.21;100407.16;5008599;28;20324;-84
2023/04/19 08:27:52;;;;;;;37.80;15.85;;;;;;;12.01;73.74;100415.59;5018087;28;20135;-85
2023/04/19 08:30:19;;;;;;;36.70;14.70;;;;;;;12.02;73.40;100413.78;5010677;28;20041;-84
2023/04/19 08:32:46;;;;;;;32.83;14.20;;;;;;;12.06;73.88;100412.53;4996050;28;20049;-85
2023/04/19 08:35:13;;;;;;;36.80;14.57;;;;;;;12.06;73.93;100409.84;4995320;28;20041;-84
2023/04/19 08:37:39;;;;;;;33.90;14.02;;;;;;;12.07;73.64;100411.56;4966602;28;20056;-85
2023/04/19 08:40:07;;;;;;;34.63;13.43;;;;;;;12.07;73.46;100407.06;5021255;28;20564;-85
2023/04/19 08:42:34;;;;;;;33.50;14.40;;;;;;;12.07;72.99;100401.75;5012261;28;20053;-85
2023/04/19 08:45:07;;;;;;;31.67;13.88;;;;;;;12.10;73.32;100403.31;5009016;28;20050;-85
2023/04/19 08:47:38;;;;;;;33.83;13.55;;;;;;;12.07;72.72;100401.75;5009706;28;20080;-85
2023/04/19 08:50:08;;;;;;;34.10;12.95;;;;;;;12.10;72.77;100397.97;5012931;28;20041;-84
2023/04/19 08:52:57;;;;;;;34.55;13.23;;;;;;;12.07;72.59;100391.09;5007560;28;20506;-85
2023/04/19 08:55:42;;;;;;;35.58;13.43;;;;;;;12.05;72.65;100398.38;5009952;28;20100;-85
2023/04/19 08:58:31;;;;;;;35.42;13.98;;;;;;;12.04;72.58;100391.38;5004238;28;20049;-85
2023/04/19 09:01:18;;;;;;;49.33;16.42;;;;;;;12.02;72.63;100388.00;5013219;28;20057;-85
2023/04/19 09:04:00;;;;;;;39.28;14.60;;;;;;;11.87;72.81;100386.63;5008815;28;20041;-85
2023/04/19 09:06:46;;;;;;;43.58;15.75;;;;;;;11.91;73.18;100383.59;5014884;28;20488;-85
2023/04/19 09:09:15;;;;;;;41.58;16.17;;;;;;;11.89;73.64;100387.38;5003498;28;20139;-84
2023/04/19 09:12:01;;;;;;;36.67;14.60;;;;;;;11.95;73.33;100386.81;5010320;28;20049;-85
2023/04/19 09:14:28;;;;;;;28.58;14.23;;;;;;;11.90;72.72;100384.56;5009407;28;20042;-84
2023/04/19 09:17:12;;;;;;;32.75;13.57;;;;;;;11.80;72.10;100382.78;4991784;28;20418;-85
2023/04/19 09:19:47;;;;;;;38.55;15.63;;;;;;;11.84;72.14;100390.38;5011130;28;20627;-85
2023/04/19 09:22:14;;;;;;;30.85;15.02;;;;;;;11.87;72.82;100386.63;5003048;28;20096;-85
2023/04/19 09:24:41;;;;;;;33.58;13.25;;;;;;;11.88;72.75;100378.53;5000469;28;20053;-85
2023/04/19 09:27:11;;;;;;;35.38;14.65;;;;;;;11.89;72.95;100369.56;5000070;28;20058;-85
2023/04/19 09:29:38;;;;;;;30.38;12.80;;;;;;;11.93;72.67;100381.66;5011589;28;20084;-85
2023/04/19 09:32:05;;;;;;;34.03;14.27;;;;;;;11.97;72.53;100376.06;5014410;28;20058;-85
2023/04/19 09:34:32;;;;;;;34.30;15.35;;;;;;;12.01;72.59;100382.78;5007884;28;20579;-86
2023/04/19 09:37:12;;;;;;;32.70;13.98;;;;;;;11.91;72.40;100378.28;5012463;28;20050;-85
2023/04/19 09:39:58;;;;;;;34.67;14.63;;;;;;;11.99;72.34;100374.94;5011207;28;20410;-85
2023/04/19 09:42:44;;;;;;;38.00;13.55;;;;;;;11.91;72.96;100366.78;4993229;28;20466;-85
2023/04/19 09:45:44;;;;;;;39.63;16.23;;;;;;;11.91;71.87;100366.78;4995488;28;20428;-86
2023/04/19 09:48:11;;;;;;;30.90;13.25;;;;;;;11.96;72.21;100372.56;4988879;28;20379;-85
2023/04/19 09:51:01;;;;;;;39.85;15.18;;;;;;;11.88;71.93;100367.03;4992551;28;20065;-85
2023/04/19 09:53:38;;;;;;;34.65;15.57;;;;;;;11.91;72.61;100367.63;5000142;28;20038;-85
2023/04/19 09:56:05;;;;;;;38.22;15.20;;;;;;;11.89;72.52;100358.94;5014103;28;20061;-85
2023/04/19 09:58:32;;;;;;;37.22;13.25;;;;;;;11.93;72.25;100363.03;5002123;28;20049;-85
2023/04/19 10:01:02;;;;;;;44.67;16.70;;;;;;;11.93;72.34;100362.16;5015837;28;20046;-85
2023/04/19 10:03:43;;;;;;;39.28;15.73;;;;;;;11.90;72.53;100359.75;5000740;28;20479;-85
2023/04/19 10:06:14;;;;;;;39.65;15.23;;;;;;;11.84;72.97;100361.09;5008297;28;20123;-86
2023/04/19 10:09:03;;;;;;;41.45;15.20;;;;;;;11.86;73.00;100355.66;5008967;28;20453;-85
2023/04/19 10:11:37;;;;;;;37.95;14.90;;;;;;;11.81;73.07;100363.19;4997946;28;20072;-84
2023/04/19 10:14:09;;;;;;;37.15;15.57;;;;;;;11.83;73.09;100362.09;5003533;28;20100;-85
2023/04/19 10:16:37;;;;;;;42.75;15.95;;;;;;;11.79;73.38;100354.50;5014234;28;20127;-85
2023/04/19 10:19:12;;;;;;;39.22;16.48;;;;;;;11.67;73.10;100369.66;5009726;28;20088;-86
2023/04/19 10:21:40;;;;;;;40.42;18.58;;;;;;;11.68;72.92;100364.22;5031325;28;20444;-86
2023/04/19 10:24:08;;;;;;;48.33;18.23;;;;;;;11.78;71.92;100366.97;5011602;28;20548;-84
2023/04/19 10:27:03;;;;;;;45.80;17.67;;;;;;;11.55;72.27;100366.25;5011313;28;20490;-84
2023/04/19 10:29:56;;;;;;;46.47;18.38;;;;;;;11.53;72.09;100368.19;5010605;28;20091;-84
2023/04/19 10:32:26;;;;;;;47.75;18.15;;;;;;;11.64;72.34;100365.47;5011308;28;20054;-84
2023/04/19 10:34:53;;;;;;;51.53;17.90;;;;;;;11.51;72.75;100354.16;5018939;28;20052;-84
2023/04/19 10:37:22;;;;;;;46.88;17.23;;;;;;;11.48;72.14;100360.59;5014924;28;20107;-84
2023/04/19 10:39:50;;;;;;;50.63;18.60;;;;;;;11.46;71.64;100359.88;5011846;28;20107;-84
2023/04/19 10:42:17;;;;;;;42.65;15.75;;;;;;;11.50;71.87;100360.47;5011726;28;20045;-84
2023/04/19 10:45:22;;;;;;;49.78;18.63;;;;;;;11.40;72.81;100357.72;4999254;28;20169;-84
2023/04/19 10:47:50;;;;;;;54.25;19.40;;;;;;;11.46;72.42;100364.34;5004793;28;20033;-85
2023/04/19 10:50:17;;;;;;;46.75;18.15;;;;;;;11.50;72.45;100355.16;4995530;28;20034;-84
2023/04/19 10:52:44;;;;;;;42.63;17.75;;;;;;;11.53;72.41;100344.25;5010429;28;20049;-84
2023/04/19 10:55:15;;;;;;;43.33;16.73;;;;;;;11.59;72.58;100342.88;5016522;28;20049;-84
2023/04/19 10:58:05;;;;;;;44.92;17.10;;;;;;;11.57;72.05;100342.16;5009149;28;20132;-84
2023/04/19 11:00:32;;;;;;;48.15;16.90;;;;;;;11.61;71.83;100333.81;4998307;28;20129;-84
2023/04/19 11:02:59;;;;;;;52.85;16.88;;;;;;;11.57;72.17;100328.88;5020028;28;20049;-84
2023/04/19 11:05:29;;;;;;;43.00;15.65;;;;;;;11.57;71.59;100331.53;4978356;28;20507;-85
2023/04/19 11:07:56;;;;;;;48.65;16.77;;;;;;;11.64;72.06;100330.88;5009462;28;20057;-84
2023/04/19 11:10:29;;;;;;;43.83;17.85;;;;;;;11.57;71.29;100336.84;5012122;28;20041;-84
2023/04/19 11:12:56;;;;;;;46.90;15.57;;;;;;;11.49;71.34;100334.84;5011457;28;20068;-84
2023/04/19 11:15:23;;;;;;;45.42;17.10;;;;;;;11.50;71.37;100323.25;5009195;28;20049;-84
2023/04/19 11:17:51;;;;;;;44.58;15.48;;;;;;;11.51;71.50;100323.09;5017019;28;20046;-84
2023/04/19 11:20:34;;;;;;;41.47;17.55;;;;;;;11.58;71.89;100317.28;5015388;28;20127;-84